Terminal Aerodrome Forecast
Issued by NWS

Home | Current Version | Previous Version | Text Only | Print | Product List | Glossary On
Versions: 1 2 3 4 5 6 7 8 9 10 11 12 13 14 15 16 17 18
000
FTUS43 KDVN 201144
TAFBRL
TAF
KBRL 201144Z 2012/2112 09013KT 6SM RA BR OVC005
      TEMPO 2013/2014 4SM TSRA OVC004CB
     FM201500 14013KT 6SM BR OVC007
     FM201800 19009KT P6SM BKN025
     FM210500 23011KT P6SM BKN015=

USA.gov is the U.S. government's official web portal to all federal, state and local government web resources and services.